Time;durP1;ratioP1;P1;durP2;ratioP2;P2;SDS_P1;SDS_P2;PMS_P1;PMS_P2;Temp;Humidity;BMP_temperature;BMP_pressure;BME280_temperature;BME280_humidity;BME280_pressure;Samples;Min_cycle;Max_cycle;Signal;HPM_P1;HPM_P2
2022/12/09 00:01:31;;;;;;;61.88;33.15;;;4.10;99.90;;;;;;5028055;28;20055;-69
2022/12/09 00:03:57;;;;;;;63.20;33.13;;;4.10;99.90;;;;;;5030976;28;20063;-69
2022/12/09 00:06:25;;;;;;;67.80;34.92;;;4.10;99.90;;;;;;5022439;28;20112;-70
2022/12/09 00:08:51;;;;;;;56.25;32.55;;;4.10;99.90;;;;;;5026047;28;20025;-70
2022/12/09 00:11:18;;;;;;;59.50;30.80;;;4.10;99.90;;;;;;5026843;28;20110;-70
2022/12/09 00:13:51;;;;;;;58.90;30.67;;;4.10;99.90;;;;;;5023652;28;20029;-70
2022/12/09 00:16:16;;;;;;;53.00;29.27;;;4.10;99.90;;;;;;5025847;28;20108;-70
2022/12/09 00:18:42;;;;;;;53.67;30.42;;;4.10;99.90;;;;;;5028036;28;20109;-70
2022/12/09 00:21:17;;;;;;;60.97;31.65;;;4.10;99.90;;;;;;5029280;28;20025;-69
2022/12/09 00:23:43;;;;;;;65.53;34.03;;;4.10;99.90;;;;;;5027680;28;20029;-69
2022/12/09 00:26:09;;;;;;;57.63;31.30;;;4.10;99.90;;;;;;5023728;28;20025;-70
2022/12/09 00:28:34;;;;;;;61.38;29.98;;;4.10;99.90;;;;;;5026455;28;20028;-70
2022/12/09 00:31:01;;;;;;;56.08;29.55;;;4.10;99.90;;;;;;5028973;28;20104;-69
2022/12/09 00:33:29;;;;;;;55.88;30.70;;;4.00;99.90;;;;;;5026979;28;20021;-70
2022/12/09 00:35:55;;;;;;;52.60;30.35;;;4.10;99.90;;;;;;5023197;28;20488;-69
2022/12/09 00:38:20;;;;;;;54.42;29.75;;;4.00;99.90;;;;;;5025550;28;20022;-69
2022/12/09 00:40:46;;;;;;;54.10;29.67;;;4.10;99.90;;;;;;5029366;28;20099;-69
2022/12/09 00:43:12;;;;;;;60.53;30.85;;;4.10;99.90;;;;;;5025196;28;20087;-70
2022/12/09 00:45:37;;;;;;;57.13;30.33;;;4.00;99.90;;;;;;5024636;28;20040;-69
2022/12/09 00:48:03;;;;;;;55.85;29.98;;;4.10;99.90;;;;;;5025486;28;20026;-69
2022/12/09 00:50:28;;;;;;;61.05;31.65;;;4.10;99.90;;;;;;5027924;28;20038;-69
2022/12/09 00:52:54;;;;;;;62.30;31.58;;;4.10;99.90;;;;;;5026288;28;20037;-69
2022/12/09 00:55:21;;;;;;;56.50;28.52;;;4.10;99.90;;;;;;5026988;28;20385;-70
2022/12/09 00:57:46;;;;;;;55.58;29.92;;;4.10;99.90;;;;;;5026332;28;20033;-70
2022/12/09 01:00:12;;;;;;;60.53;31.38;;;4.10;99.90;;;;;;5020512;28;20026;-69
2022/12/09 01:02:38;;;;;;;59.33;29.90;;;4.10;99.90;;;;;;5027280;28;20025;-70
2022/12/09 01:05:04;;;;;;;58.70;29.70;;;4.10;99.90;;;;;;5026906;28;20044;-70
2022/12/09 01:07:29;;;;;;;54.47;31.70;;;4.20;99.90;;;;;;5026499;28;20108;-70
2022/12/09 01:09:55;;;;;;;54.78;28.48;;;4.10;99.90;;;;;;5026807;28;20025;-70
2022/12/09 01:12:20;;;;;;;60.45;30.80;;;4.10;99.90;;;;;;5025961;28;20090;-70
2022/12/09 01:14:46;;;;;;;62.42;29.42;;;4.10;99.90;;;;;;5020536;28;20737;-69
2022/12/09 01:17:12;;;;;;;53.78;29.00;;;4.20;99.90;;;;;;5025979;28;20029;-69
2022/12/09 01:19:39;;;;;;;56.03;30.48;;;4.20;99.90;;;;;;5028363;28;20025;-69
2022/12/09 01:22:05;;;;;;;57.22;30.40;;;4.10;99.90;;;;;;5024135;28;20072;-69
2022/12/09 01:24:30;;;;;;;56.10;27.60;;;4.10;99.90;;;;;;5024707;28;20061;-70
2022/12/09 01:26:56;;;;;;;59.00;29.05;;;4.10;99.90;;;;;;5027280;28;20465;-70
2022/12/09 01:29:21;;;;;;;60.40;31.17;;;4.10;99.90;;;;;;5021998;28;20466;-69
2022/12/09 01:31:47;;;;;;;56.25;28.67;;;4.10;99.90;;;;;;5027759;28;20029;-70
2022/12/09 01:34:13;;;;;;;55.35;30.02;;;4.00;99.90;;;;;;5028783;28;20037;-70
2022/12/09 01:36:38;;;;;;;59.75;31.48;;;4.10;99.90;;;;;;5028167;28;20041;-70
2022/12/09 01:39:04;;;;;;;58.03;31.55;;;4.10;99.90;;;;;;5022766;28;20083;-70
2022/12/09 01:41:30;;;;;;;59.22;30.20;;;4.10;99.90;;;;;;5028296;28;20037;-69
2022/12/09 01:44:17;;;;;;;62.15;31.40;;;4.10;99.90;;;;;;5026704;28;20120;-70
2022/12/09 01:46:44;;;;;;;59.90;30.83;;;4.20;99.90;;;;;;5022781;28;20622;-69
2022/12/09 01:49:17;;;;;;;58.60;31.20;;;4.20;99.90;;;;;;5026980;28;20108;-69
2022/12/09 01:51:47;;;;;;;59.25;30.15;;;4.10;99.90;;;;;;5021871;28;20029;-69
2022/12/09 01:54:13;;;;;;;59.05;30.42;;;4.20;99.90;;;;;;5024853;28;20439;-69
2022/12/09 01:56:40;;;;;;;55.95;29.20;;;4.20;99.90;;;;;;5023094;28;20061;-70
2022/12/09 01:59:09;;;;;;;61.08;31.73;;;4.30;99.90;;;;;;5026240;28;20014;-69
2022/12/09 02:01:35;;;;;;;61.53;31.55;;;4.30;99.90;;;;;;5027127;28;20044;-70
2022/12/09 02:04:01;;;;;;;63.22;32.00;;;4.30;99.90;;;;;;5025505;28;20042;-70
2022/12/09 02:06:26;;;;;;;65.25;31.85;;;4.30;99.90;;;;;;5024136;28;20445;-70
2022/12/09 02:08:53;;;;;;;61.40;31.95;;;4.30;99.90;;;;;;5025839;28;20029;-70
2022/12/09 02:11:38;;;;;;;58.75;31.98;;;4.30;99.90;;;;;;5026287;28;20033;-70
2022/12/09 02:14:19;;;;;;;55.17;30.33;;;4.30;99.90;;;;;;5022875;28;20033;-69
2022/12/09 02:17:19;;;;;;;58.90;32.10;;;4.30;99.90;;;;;;5025072;28;20129;-69
2022/12/09 02:20:17;;;;;;;60.03;30.80;;;4.30;99.90;;;;;;5022137;28;20033;-70
2022/12/09 02:23:06;;;;;;;58.10;34.42;;;4.30;99.90;;;;;;5023598;28;20113;-69
2022/12/09 02:25:48;;;;;;;57.72;32.55;;;4.30;99.90;;;;;;5019101;28;20095;-69
2022/12/09 02:28:35;;;;;;;67.60;34.20;;;4.20;99.90;;;;;;5025951;28;20032;-70
2022/12/09 02:31:16;;;;;;;59.95;31.35;;;4.30;99.90;;;;;;5022538;28;20022;-70
2022/12/09 02:34:18;;;;;;;63.88;32.83;;;4.20;99.90;;;;;;5028369;28;20669;-69
2022/12/09 02:36:52;;;;;;;64.68;34.85;;;4.20;99.90;;;;;;5016711;28;20041;-70
2022/12/09 02:39:32;;;;;;;62.85;32.88;;;4.10;99.90;;;;;;5028188;28;20059;-70
2022/12/09 02:42:01;;;;;;;63.53;31.88;;;4.10;99.90;;;;;;5024293;28;20026;-69
2022/12/09 02:44:27;;;;;;;63.08;34.80;;;4.00;99.90;;;;;;5030436;28;20394;-69
2022/12/09 02:46:54;;;;;;;67.53;35.67;;;4.00;99.90;;;;;;5025411;28;20026;-69
2022/12/09 02:49:21;;;;;;;68.72;35.13;;;3.90;99.90;;;;;;5029396;28;20029;-69
2022/12/09 02:51:48;;;;;;;77.47;36.90;;;3.90;99.90;;;;;;5028355;28;20079;-69
2022/12/09 02:54:16;;;;;;;59.78;33.15;;;4.00;99.90;;;;;;5025418;28;20216;-70
2022/12/09 02:56:52;;;;;;;65.38;34.17;;;4.00;99.90;;;;;;5029685;28;20034;-70
2022/12/09 02:59:19;;;;;;;61.40;33.38;;;4.00;99.90;;;;;;5029051;28;20500;-70
2022/12/09 03:01:51;;;;;;;57.90;32.38;;;4.10;99.90;;;;;;5030835;28;20017;-69
2022/12/09 03:04:23;;;;;;;67.10;34.03;;;4.20;99.90;;;;;;5024994;28;20406;-69
2022/12/09 03:06:52;;;;;;;67.63;34.33;;;4.20;99.90;;;;;;5027485;28;20698;-69
2022/12/09 03:09:32;;;;;;;67.55;36.33;;;4.20;99.90;;;;;;5027886;28;20033;-69
2022/12/09 03:12:05;;;;;;;67.28;35.20;;;4.20;99.90;;;;;;5026900;28;20036;-70
2022/12/09 03:14:34;;;;;;;;;;;4.10;99.90;;;;;;5043496;28;20129;-69
2022/12/09 03:17:10;;;;;;;67.63;35.28;;;4.10;99.90;;;;;;5026957;28;19913;-70
2022/12/09 03:19:43;;;;;;;65.82;34.80;;;4.10;99.90;;;;;;5029208;28;20105;-69
2022/12/09 03:22:15;;;;;;;65.50;35.17;;;4.10;99.90;;;;;;5025237;28;20372;-69
2022/12/09 03:24:56;;;;;;;69.35;34.67;;;4.20;99.90;;;;;;5026544;28;20041;-70
2022/12/09 03:27:28;;;;;;;68.13;36.33;;;4.20;99.90;;;;;;5030377;28;20465;-69
2022/12/09 03:29:55;;;;;;;71.38;39.92;;;4.20;99.90;;;;;;5024215;28;20245;-69
2022/12/09 03:32:25;;;;;;;66.80;38.10;;;4.10;99.90;;;;;;5026987;28;20056;-69
2022/12/09 03:34:56;;;;;;;65.65;36.28;;;4.20;99.90;;;;;;5027441;28;20048;-70
2022/12/09 03:37:22;;;;;;;69.30;35.63;;;4.30;99.90;;;;;;5029117;28;20115;-69
2022/12/09 03:39:50;;;;;;;77.80;36.55;;;4.30;99.90;;;;;;5023196;28;20041;-69
2022/12/09 03:42:20;;;;;;;64.53;35.30;;;4.30;99.90;;;;;;5027237;28;20017;-69
2022/12/09 03:44:54;;;;;;;66.93;37.58;;;4.30;99.90;;;;;;5028653;28;20525;-70
2022/12/09 03:47:20;;;;;;;67.30;36.28;;;4.40;99.90;;;;;;5028865;28;20037;-70
2022/12/09 03:49:45;;;;;;;69.68;37.75;;;4.40;99.90;;;;;;5029767;28;20041;-70
2022/12/09 03:52:43;;;;;;;64.38;34.42;;;4.30;99.90;;;;;;5029025;28;20017;-70
2022/12/09 03:55:33;;;;;;;76.50;37.17;;;4.30;99.90;;;;;;5025199;28;20060;-70
2022/12/09 03:58:02;;;;;;;69.30;34.15;;;4.30;99.90;;;;;;5027124;28;20143;-69
2022/12/09 04:00:29;;;;;;;75.10;37.75;;;4.40;99.90;;;;;;5027067;28;20032;-70
2022/12/09 04:02:54;;;;;;;78.40;40.15;;;4.40;99.90;;;;;;5025932;28;20041;-70
2022/12/09 04:05:20;;;;;;;73.30;37.03;;;4.40;99.90;;;;;;5023271;28;20501;-70
2022/12/09 04:07:45;;;;;;;79.28;36.22;;;4.30;99.90;;;;;;5028021;28;20028;-70
2022/12/09 04:10:11;;;;;;;76.55;37.90;;;4.20;99.90;;;;;;5025338;28;20033;-70
2022/12/09 04:12:38;;;;;;;80.05;39.35;;;4.20;99.90;;;;;;5025870;28;20030;-70
2022/12/09 04:15:05;;;;;;;87.18;39.65;;;4.20;99.90;;;;;;5027064;28;20505;-69
2022/12/09 04:17:30;;;;;;;75.53;40.65;;;4.10;99.90;;;;;;5019607;28;20612;-69
2022/12/09 04:19:56;;;;;;;73.47;38.45;;;4.20;99.90;;;;;;5024378;28;20109;-70
2022/12/09 04:22:21;;;;;;;76.28;39.05;;;4.30;99.90;;;;;;5035208;28;20036;-69
2022/12/09 04:24:47;;;;;;;78.18;39.75;;;4.30;99.90;;;;;;5034213;28;20072;-69
2022/12/09 04:27:13;;;;;;;89.07;42.33;;;4.30;99.90;;;;;;5028061;28;20386;-69
2022/12/09 04:29:38;;;;;;;82.65;39.72;;;4.30;99.90;;;;;;5025455;28;20021;-70
2022/12/09 04:32:04;;;;;;;79.13;38.45;;;4.20;99.90;;;;;;5028677;28;20018;-70
2022/12/09 04:34:31;;;;;;;86.53;38.15;;;4.30;99.90;;;;;;5023596;28;20557;-70
2022/12/09 04:36:57;;;;;;;92.75;41.83;;;4.40;99.90;;;;;;5027670;28;20092;-69
2022/12/09 04:39:23;;;;;;;82.60;38.13;;;4.40;99.90;;;;;;5032770;28;20041;-70
2022/12/09 04:41:48;;;;;;;98.70;39.67;;;4.40;99.90;;;;;;5027516;28;20472;-69
2022/12/09 04:44:14;;;;;;;88.72;42.30;;;4.40;99.90;;;;;;5033115;28;20071;-69
2022/12/09 04:46:39;;;;;;;99.85;42.58;;;4.40;99.90;;;;;;5032883;28;20022;-70
2022/12/09 04:49:05;;;;;;;92.75;40.30;;;4.40;99.90;;;;;;5027775;28;20025;-69
2022/12/09 04:51:31;;;;;;;92.20;39.10;;;4.40;99.90;;;;;;5032671;28;20386;-70
2022/12/09 04:53:56;;;;;;;93.35;41.90;;;4.40;99.90;;;;;;5027239;28;20030;-69
2022/12/09 04:56:22;;;;;;;93.82;41.00;;;4.40;99.90;;;;;;5030136;28;20071;-69
2022/12/09 04:58:49;;;;;;;97.18;40.45;;;4.30;99.90;;;;;;5020557;28;20037;-70
2022/12/09 05:01:18;;;;;;;92.80;41.75;;;4.30;99.90;;;;;;5032445;28;20108;-70
2022/12/09 05:03:48;;;;;;;106.95;45.08;;;4.30;99.90;;;;;;5024191;28;20046;-69
2022/12/09 05:06:14;;;;;;;104.32;44.33;;;4.40;99.90;;;;;;5028819;28;20025;-70
2022/12/09 05:08:40;;;;;;;105.40;42.92;;;4.50;99.90;;;;;;5022667;28;20067;-70
2022/12/09 05:11:06;;;;;;;102.28;43.65;;;4.50;99.90;;;;;;5019430;28;20045;-70
2022/12/09 05:13:32;;;;;;;113.65;43.60;;;4.40;99.90;;;;;;5023906;28;20489;-69
2022/12/09 05:16:04;;;;;;;101.80;42.53;;;4.40;99.90;;;;;;5025955;28;20037;-70
2022/12/09 05:18:29;;;;;;;89.70;37.00;;;4.30;99.90;;;;;;5029498;28;20042;-70
2022/12/09 05:20:55;;;;;;;112.57;44.13;;;4.40;99.90;;;;;;5023330;28;20326;-70
2022/12/09 05:23:21;;;;;;;101.30;42.13;;;4.50;99.90;;;;;;5021860;28;20030;-70
2022/12/09 05:25:46;;;;;;;109.00;42.13;;;4.50;99.90;;;;;;5019930;28;20376;-69
2022/12/09 05:28:12;;;;;;;127.50;47.00;;;4.50;99.90;;;;;;5026650;28;20030;-70
2022/12/09 05:30:38;;;;;;;102.25;43.25;;;4.40;99.90;;;;;;5025915;28;20029;-69
2022/12/09 05:33:04;;;;;;;110.85;46.42;;;4.40;99.90;;;;;;5032160;28;20139;-69
2022/12/09 05:35:29;;;;;;;117.10;47.67;;;4.40;99.90;;;;;;5015542;28;20099;-69
2022/12/09 05:37:56;;;;;;;114.28;48.40;;;4.30;99.90;;;;;;5024879;28;20018;-69
2022/12/09 05:40:21;;;;;;;103.45;46.38;;;4.30;99.90;;;;;;5021896;28;20044;-68
2022/12/09 05:42:47;;;;;;;129.85;51.72;;;4.20;99.90;;;;;;5025831;28;20034;-68
2022/12/09 05:45:13;;;;;;;123.43;51.53;;;4.30;99.90;;;;;;5026653;28;20033;-69
2022/12/09 05:47:39;;;;;;;137.05;49.72;;;4.40;99.90;;;;;;5023815;28;20065;-69
2022/12/09 05:50:06;;;;;;;138.10;56.10;;;4.40;99.90;;;;;;5021805;28;20072;-69
2022/12/09 05:52:34;;;;;;;130.00;52.97;;;4.40;99.90;;;;;;5020749;28;20102;-69
2022/12/09 05:55:03;;;;;;;138.80;54.65;;;4.30;99.90;;;;;;5024364;28;20033;-69
2022/12/09 05:57:29;;;;;;;145.73;55.00;;;4.20;99.90;;;;;;5021219;28;20022;-69
2022/12/09 05:59:54;;;;;;;141.45;55.13;;;4.20;99.90;;;;;;5026701;28;20461;-69
2022/12/09 06:02:20;;;;;;;134.32;51.75;;;4.30;99.90;;;;;;5021148;28;20109;-69
2022/12/09 06:04:46;;;;;;;141.60;52.08;;;4.40;99.90;;;;;;5026068;28;20038;-69
2022/12/09 06:07:12;;;;;;;145.93;55.33;;;4.40;99.90;;;;;;5031351;28;20057;-69
2022/12/09 06:09:37;;;;;;;121.22;50.03;;;4.50;99.90;;;;;;5026403;28;20072;-69
2022/12/09 06:12:03;;;;;;;145.90;50.50;;;4.50;99.90;;;;;;5028537;28;20026;-69
2022/12/09 06:14:29;;;;;;;153.02;51.08;;;4.50;99.90;;;;;;5028494;28;20029;-69
2022/12/09 06:16:54;;;;;;;135.82;48.35;;;4.50;99.90;;;;;;5034272;28;20038;-70
2022/12/09 06:19:20;;;;;;;138.75;48.25;;;4.50;99.90;;;;;;5027087;28;20469;-69
2022/12/09 06:21:46;;;;;;;165.32;54.80;;;4.50;99.90;;;;;;5026439;28;20022;-70
2022/12/09 06:24:11;;;;;;;146.00;50.75;;;4.50;99.90;;;;;;5020783;28;20038;-70
2022/12/09 06:26:37;;;;;;;183.15;57.88;;;4.50;99.90;;;;;;5030382;28;20535;-70
2022/12/09 06:29:03;;;;;;;146.00;49.53;;;4.50;99.90;;;;;;5032762;28;20058;-69
2022/12/09 06:31:28;;;;;;;144.95;52.08;;;4.50;99.90;;;;;;5035713;28;20018;-69
2022/12/09 06:33:54;;;;;;;133.82;50.75;;;4.60;99.90;;;;;;5032608;28;20017;-69
2022/12/09 06:36:20;;;;;;;156.63;52.75;;;4.50;99.90;;;;;;5029396;28;20084;-69
2022/12/09 06:38:46;;;;;;;143.65;53.67;;;4.50;99.90;;;;;;5029435;28;20551;-69
2022/12/09 06:41:13;;;;;;;151.60;51.50;;;4.60;99.90;;;;;;5026826;28;20024;-69
2022/12/09 06:43:39;;;;;;;149.43;53.55;;;4.50;99.90;;;;;;5029959;28;20067;-69
2022/12/09 06:46:19;;;;;;;146.35;52.95;;;4.60;99.90;;;;;;5025701;28;20052;-69
2022/12/09 06:48:46;;;;;;;159.95;56.15;;;4.50;99.90;;;;;;5028614;28;20156;-68
2022/12/09 06:51:12;;;;;;;141.40;53.63;;;4.50;99.90;;;;;;5026303;28;20030;-69
2022/12/09 06:53:37;;;;;;;165.93;56.30;;;4.50;99.90;;;;;;5029602;28;20036;-69
2022/12/09 06:56:05;;;;;;;154.02;54.30;;;4.50;99.90;;;;;;5029428;28;20026;-69
2022/12/09 06:58:32;;;;;;;151.35;51.85;;;4.50;99.90;;;;;;5035139;28;20026;-70
2022/12/09 07:01:05;;;;;;;144.02;50.22;;;4.50;99.90;;;;;;5023708;28;20022;-69
2022/12/09 07:03:31;;;;;;;148.55;52.22;;;4.60;99.90;;;;;;5032232;28;20017;-69
2022/12/09 07:05:56;;;;;;;142.93;50.47;;;4.60;99.90;;;;;;5023069;28;20049;-69
2022/12/09 07:08:22;;;;;;;153.57;52.65;;;4.60;99.90;;;;;;5024404;28;20036;-69
2022/12/09 07:10:47;;;;;;;145.70;50.17;;;4.60;99.90;;;;;;5020658;28;20128;-69
2022/12/09 07:13:13;;;;;;;148.63;52.65;;;4.50;99.90;;;;;;5027394;28;20091;-69
2022/12/09 07:15:38;;;;;;;135.98;48.67;;;4.60;99.90;;;;;;5030469;28;20026;-69
2022/12/09 07:18:06;;;;;;;141.27;49.63;;;4.50;99.90;;;;;;5026453;28;20419;-69
2022/12/09 07:20:31;;;;;;;138.43;50.17;;;4.50;99.90;;;;;;5027411;28;20034;-69
2022/12/09 07:22:58;;;;;;;137.13;50.03;;;4.30;99.90;;;;;;5028451;28;20470;-69
2022/12/09 07:25:23;;;;;;;142.73;53.63;;;4.30;99.90;;;;;;5025540;28;20029;-69
2022/12/09 07:27:49;;;;;;;163.02;55.70;;;4.30;99.90;;;;;;5018483;28;20033;-69
2022/12/09 07:30:15;;;;;;;155.23;54.05;;;4.30;99.90;;;;;;5024881;28;20548;-69
2022/12/09 07:32:40;;;;;;;152.80;54.03;;;4.30;99.90;;;;;;5021557;28;20061;-69
2022/12/09 07:35:06;;;;;;;137.18;48.88;;;4.30;99.90;;;;;;5030945;28;20033;-69
2022/12/09 07:37:32;;;;;;;158.32;52.25;;;4.30;99.90;;;;;;5033971;28;20112;-69
2022/12/09 07:39:57;;;;;;;143.63;50.65;;;4.40;99.90;;;;;;5027877;28;20462;-69
2022/12/09 07:42:23;;;;;;;159.30;51.03;;;4.50;99.90;;;;;;5028261;28;20068;-69
2022/12/09 07:44:49;;;;;;;149.30;52.65;;;4.40;99.90;;;;;;5027895;28;20069;-69
2022/12/09 07:47:15;;;;;;;145.30;52.65;;;4.50;99.90;;;;;;5025813;28;20046;-69
2022/12/09 07:49:40;;;;;;;137.27;49.80;;;4.50;99.90;;;;;;5026609;28;20034;-69
2022/12/09 07:52:06;;;;;;;152.80;53.03;;;4.50;99.90;;;;;;5023540;28;20389;-69
2022/12/09 07:54:31;;;;;;;145.65;52.10;;;4.50;99.90;;;;;;5024491;28;20036;-69
2022/12/09 07:56:57;;;;;;;151.10;51.75;;;4.60;99.90;;;;;;5027095;28;20029;-69
2022/12/09 07:59:22;;;;;;;145.57;51.45;;;4.60;99.90;;;;;;5023172;28;20060;-69
2022/12/09 08:01:48;;;;;;;141.80;48.47;;;4.60;99.90;;;;;;5025555;28;20083;-69
2022/12/09 08:04:14;;;;;;;139.55;48.47;;;4.60;99.90;;;;;;5029255;28;20041;-69
2022/12/09 08:06:39;;;;;;;147.52;48.60;;;4.70;99.90;;;;;;5033195;28;20497;-69
2022/12/09 08:09:09;;;;;;;139.60;51.97;;;4.70;99.90;;;;;;5025260;28;20020;-69
2022/12/09 08:11:35;;;;;;;126.63;47.67;;;4.70;99.90;;;;;;5025054;28;20051;-70
2022/12/09 08:14:03;;;;;;;152.73;48.88;;;4.70;99.90;;;;;;5029381;28;20065;-68
2022/12/09 08:16:29;;;;;;;138.63;52.08;;;4.70;99.90;;;;;;5028738;28;20068;-68
2022/12/09 08:18:55;;;;;;;140.63;51.03;;;4.70;99.90;;;;;;5023565;28;20065;-68
2022/12/09 08:21:27;;;;;;;128.75;46.92;;;4.70;99.90;;;;;;5027945;28;20470;-68
2022/12/09 08:23:55;;;;;;;134.45;49.35;;;4.80;99.90;;;;;;5025593;28;20094;-68
2022/12/09 08:26:22;;;;;;;128.88;49.25;;;4.70;99.90;;;;;;5029496;28;20029;-69
2022/12/09 08:28:49;;;;;;;132.00;46.90;;;4.80;99.90;;;;;;5031566;28;20673;-69
2022/12/09 08:31:20;;;;;;;113.60;39.95;;;4.70;99.90;;;;;;5033972;28;20067;-68
2022/12/09 08:33:46;;;;;;;143.50;45.60;;;4.80;99.90;;;;;;5030802;28;20064;-67
2022/12/09 08:36:20;;;;;;;135.63;47.53;;;4.80;99.90;;;;;;5019675;28;20073;-68
2022/12/09 08:38:46;;;;;;;131.55;45.92;;;4.50;99.90;;;;;;5022504;28;20423;-68
2022/12/09 08:41:16;;;;;;;133.68;47.47;;;4.40;99.90;;;;;;5026024;28;20028;-68
2022/12/09 08:43:42;;;;;;;140.38;47.45;;;4.40;99.90;;;;;;5023876;28;20044;-69
2022/12/09 08:46:08;;;;;;;145.98;50.83;;;4.40;99.90;;;;;;5026850;28;20053;-70
2022/12/09 08:48:38;;;;;;;149.95;47.53;;;4.50;99.90;;;;;;5030635;28;20025;-70
2022/12/09 08:51:05;;;;;;;118.05;43.72;;;4.50;99.90;;;;;;5026842;28;20041;-70
2022/12/09 08:53:30;;;;;;;106.75;40.33;;;4.50;99.90;;;;;;5025886;28;20064;-70
2022/12/09 08:55:56;;;;;;;117.22;43.10;;;4.50;99.90;;;;;;5022886;28;20076;-70
2022/12/09 08:58:22;;;;;;;118.15;44.28;;;4.30;99.90;;;;;;5026244;28;20018;-69
2022/12/09 09:00:48;;;;;;;117.40;41.55;;;4.40;99.90;;;;;;5031312;28;20566;-70
2022/12/09 09:03:13;;;;;;;100.13;39.47;;;4.20;99.90;;;;;;5021322;28;20033;-70
2022/12/09 09:05:39;;;;;;;114.45;41.50;;;4.20;99.90;;;;;;5022452;28;20030;-70
2022/12/09 09:08:04;;;;;;;118.78;42.40;;;4.30;99.90;;;;;;5023981;28;20078;-69
2022/12/09 09:10:30;;;;;;;102.13;37.70;;;4.40;99.90;;;;;;5025673;28;20392;-70
2022/12/09 09:12:56;;;;;;;102.40;36.65;;;4.40;99.90;;;;;;5027659;28;20051;-69
2022/12/09 09:15:22;;;;;;;114.75;40.67;;;4.30;99.90;;;;;;5016720;28;20037;-68
2022/12/09 09:17:47;;;;;;;109.18;40.75;;;4.30;99.90;;;;;;5027447;28;20026;-69
2022/12/09 09:20:13;;;;;;;116.40;39.70;;;4.40;99.90;;;;;;5027965;28;20034;-69
2022/12/09 09:22:39;;;;;;;110.80;41.72;;;4.40;99.90;;;;;;5028516;28;20033;-68
2022/12/09 09:25:04;;;;;;;121.90;40.05;;;4.40;99.90;;;;;;5030024;28;20497;-68
2022/12/09 09:27:30;;;;;;;114.03;41.10;;;4.40;99.90;;;;;;5027269;28;20096;-68
2022/12/09 09:29:55;;;;;;;101.57;38.72;;;4.30;99.90;;;;;;5028670;28;20105;-69
2022/12/09 09:32:21;;;;;;;103.32;39.40;;;4.40;99.90;;;;;;5027716;28;20025;-69
2022/12/09 09:34:49;;;;;;;100.55;38.50;;;4.50;99.90;;;;;;5026235;28;20021;-68
2022/12/09 09:37:15;;;;;;;87.22;31.90;;;4.50;99.90;;;;;;5032530;28;20067;-69
2022/12/09 09:39:41;;;;;;;76.63;29.42;;;4.40;99.90;;;;;;5027138;28;20029;-68
2022/12/09 09:42:14;;;;;;;76.63;30.85;;;4.40;99.90;;;;;;5031966;28;20025;-69
2022/12/09 09:44:49;;;;;;;74.15;28.38;;;4.40;99.90;;;;;;5027896;28;20041;-69
2022/12/09 09:47:18;;;;;;;78.50;30.45;;;4.30;99.90;;;;;;5026220;28;20394;-69
2022/12/09 09:50:03;;;;;;;83.07;32.55;;;4.30;99.90;;;;;;5024701;28;20567;-68
2022/12/09 09:52:29;;;;;;;77.25;30.52;;;4.40;99.90;;;;;;5025269;28;20491;-69
2022/12/09 09:54:56;;;;;;;78.05;30.67;;;4.40;99.90;;;;;;5022361;28;20022;-69
2022/12/09 09:57:50;;;;;;;81.32;30.90;;;4.40;99.90;;;;;;5024691;28;20034;-70
2022/12/09 10:01:02;;;;;;;79.03;31.92;;;4.40;99.90;;;;;;5023431;28;20046;-69
2022/12/09 10:03:48;;;;;;;69.78;28.67;;;4.40;99.90;;;;;;5028690;28;20045;-72
2022/12/09 10:06:30;;;;;;;67.53;27.55;;;4.40;99.90;;;;;;5023893;28;20041;-72
2022/12/09 10:09:09;;;;;;;61.13;26.17;;;4.30;99.90;;;;;;5032210;28;20500;-67
2022/12/09 10:11:51;;;;;;;71.75;27.13;;;4.30;99.90;;;;;;5029189;28;20018;-68
2022/12/09 10:14:25;;;;;;;65.80;27.90;;;4.20;99.90;;;;;;5028719;28;20292;-68
2022/12/09 10:17:15;;;;;;;66.38;28.17;;;4.30;99.90;;;;;;5026527;28;20030;-68
2022/12/09 10:19:51;;;;;;;74.68;30.33;;;4.40;99.90;;;;;;5027401;28;20116;-68
2022/12/09 10:22:20;;;;;;;70.80;28.77;;;4.60;99.90;;;;;;5021777;28;20092;-68
2022/12/09 10:24:53;;;;;;;73.72;28.80;;;4.60;99.90;;;;;;5026981;28;20032;-68
2022/12/09 10:27:33;;;;;;;68.82;27.70;;;4.40;99.90;;;;;;5023128;28;20030;-68
2022/12/09 10:30:13;;;;;;;65.22;27.20;;;4.30;99.90;;;;;;5022919;28;20026;-68
2022/12/09 10:32:40;;;;;;;61.00;26.75;;;4.40;99.90;;;;;;5018569;28;20033;-68
2022/12/09 10:35:12;;;;;;;67.00;28.42;;;4.50;99.90;;;;;;5028345;28;20431;-68
2022/12/09 10:37:38;;;;;;;64.85;27.67;;;4.60;99.90;;;;;;5022364;28;20356;-68
2022/12/09 10:40:09;;;;;;;66.35;27.73;;;4.60;99.90;;;;;;5031101;28;20045;-68
2022/12/09 10:45:49;;;;;;;64.53;27.98;;;4.60;99.90;;;;;;5025076;28;20505;-68
2022/12/09 10:48:41;;;;;;;71.05;27.17;;;4.50;99.90;;;;;;5021030;28;20025;-68
2022/12/09 10:51:14;;;;;;;65.60;27.73;;;4.50;99.90;;;;;;5023472;28;20040;-68
2022/12/09 10:54:09;;;;;;;65.18;29.35;;;4.70;99.90;;;;;;5025629;28;20025;-68
2022/12/09 10:56:37;;;;;;;65.35;28.55;;;4.70;99.90;;;;;;5025224;28;20052;-68
2022/12/09 10:59:23;;;;;;;67.00;30.33;;;4.50;99.90;;;;;;5026282;28;20446;-68
2022/12/09 11:01:53;;;;;;;71.40;31.15;;;4.50;99.90;;;;;;5027852;28;20029;-68
2022/12/09 11:04:25;;;;;;;75.80;32.67;;;4.50;99.90;;;;;;5018320;28;20057;-68
2022/12/09 11:06:53;;;;;;;74.38;31.75;;;4.50;99.90;;;;;;5029983;28;20018;-73
2022/12/09 11:09:25;;;;;;;69.05;30.90;;;4.50;99.90;;;;;;5033925;28;20498;-70
2022/12/09 11:11:51;;;;;;;72.65;29.55;;;4.30;99.90;;;;;;5032961;28;20017;-72
2022/12/09 11:14:38;;;;;;;68.80;29.38;;;4.40;99.90;;;;;;5027259;28;20075;-72
2022/12/09 11:17:16;;;;;;;67.97;30.58;;;4.30;99.90;;;;;;5028817;28;20025;-72
2022/12/09 11:19:45;;;;;;;76.97;32.40;;;4.50;99.90;;;;;;5037489;28;20021;-71
2022/12/09 11:22:37;;;;;;;71.40;30.88;;;4.60;99.90;;;;;;5027238;28;20029;-70
2022/12/09 11:25:14;;;;;;;70.43;29.00;;;4.50;99.90;;;;;;5025151;28;20048;-69
2022/12/09 11:27:55;;;;;;;66.38;29.27;;;4.50;99.90;;;;;;5028523;28;20033;-70
2022/12/09 11:30:25;;;;;;;69.20;29.73;;;4.60;99.90;;;;;;5030733;28;20038;-70
2022/12/09 11:33:11;;;;;;;74.57;30.10;;;4.40;99.90;;;;;;5029878;28;20018;-69
2022/12/09 11:35:43;;;;;;;66.78;30.33;;;4.50;99.90;;;;;;5025753;28;20083;-69
2022/12/09 11:38:31;;;;;;;68.57;29.23;;;4.60;99.90;;;;;;5028049;28;20087;-69
2022/12/09 11:41:02;;;;;;;71.20;29.38;;;4.60;99.90;;;;;;5023732;28;20021;-69
2022/12/09 11:43:48;;;;;;;76.35;30.13;;;4.40;99.90;;;;;;5031648;28;20466;-69
2022/12/09 11:46:16;;;;;;;71.10;29.95;;;4.50;99.90;;;;;;5021486;28;20029;-70
2022/12/09 11:48:52;;;;;;;71.72;30.30;;;4.50;99.90;;;;;;5027293;28;20509;-73
2022/12/09 11:51:31;;;;;;;68.32;30.58;;;4.70;99.90;;;;;;5031491;28;20099;-72
2022/12/09 11:54:12;;;;;;;66.20;28.77;;;4.70;99.90;;;;;;5021880;28;20109;-70
2022/12/09 11:56:39;;;;;;;69.55;31.55;;;4.80;99.90;;;;;;5026427;28;20022;-72
2022/12/09 11:59:15;;;;;;;74.93;32.03;;;4.80;99.90;;;;;;5026800;28;20482;-72
2022/12/09 12:01:40;;;;;;;67.60;30.40;;;4.80;99.90;;;;;;5024904;28;20013;-73
2022/12/09 12:04:13;;;;;;;73.22;31.13;;;4.90;99.90;;;;;;5054470;28;20483;-69
2022/12/09 12:06:50;;;;;;;69.25;33.08;;;5.00;99.90;;;;;;5026617;28;20022;-70
2022/12/09 12:09:19;;;;;;;81.18;34.10;;;5.00;99.90;;;;;;5026557;28;20587;-73
2022/12/09 12:11:53;;;;;;;65.88;28.90;;;4.90;99.90;;;;;;5023230;28;20088;-71
2022/12/09 12:14:25;;;;;;;73.03;29.75;;;4.80;99.90;;;;;;5027065;28;20030;-73
2022/12/09 12:17:13;;;;;;;70.35;30.83;;;4.60;99.90;;;;;;5027745;28;20039;-72
2022/12/09 12:19:41;;;;;;;83.65;35.67;;;4.70;99.90;;;;;;5030086;28;20209;-70
2022/12/09 12:22:28;;;;;;;82.35;35.90;;;4.70;99.90;;;;;;5024063;28;20022;-70
2022/12/09 12:25:20;;;;;;;67.85;29.98;;;4.80;99.90;;;;;;5020531;28;20490;-71
2022/12/09 12:28:06;;;;;;;69.43;29.77;;;4.80;99.90;;;;;;5022283;28;20046;-70
2022/12/09 12:30:56;;;;;;;74.45;31.42;;;4.80;99.90;;;;;;5029162;28;20495;-69
2022/12/09 12:33:28;;;;;;;72.57;29.77;;;4.70;99.90;;;;;;5027037;28;20026;-70
2022/12/09 12:36:29;;;;;;;73.03;30.73;;;4.70;99.90;;;;;;5028951;28;20606;-70
2022/12/09 12:39:34;;;;;;;70.47;30.88;;;4.70;99.90;;;;;;5037985;28;20478;-70
2022/12/09 12:42:24;;;;;;;69.85;31.83;;;4.70;99.90;;;;;;5027097;28;20152;-70
2022/12/09 12:48:14;;;;;;;68.15;29.55;;;4.80;99.90;;;;;;5024694;28;20087;-70
2022/12/09 12:51:11;;;;;;;68.25;29.83;;;4.70;99.90;;;;;;5022086;28;20076;-70
2022/12/09 12:53:43;;;;;;;73.93;30.05;;;4.60;99.90;;;;;;5017598;28;20030;-69
2022/12/09 12:56:15;;;;;;;69.28;30.75;;;4.70;99.90;;;;;;5024451;28;20035;-70